sensor_id;sensor_type;location;lat;lon;timestamp;P1;durP1;ratioP1;P2;durP2;ratioP2
6517;SDS011;3292;48.944;9.240;2023-11-19T00:00:06;3.30;;;3.00;;
6517;SDS011;3292;48.944;9.240;2023-11-19T00:02:37;3.30;;;3.00;;
6517;SDS011;3292;48.944;9.240;2023-11-19T00:05:04;3.80;;;3.33;;
6517;SDS011;3292;48.944;9.240;2023-11-19T00:07:33;4.83;;;3.10;;
6517;SDS011;3292;48.944;9.240;2023-11-19T00:10:02;3.63;;;3.33;;
6517;SDS011;3292;48.944;9.240;2023-11-19T00:12:31;3.40;;;3.10;;
6517;SDS011;3292;48.944;9.240;2023-11-19T00:14:58;3.67;;;3.37;;
6517;SDS011;3292;48.944;9.240;2023-11-19T00:17:25;3.43;;;3.13;;
6517;SDS011;3292;48.944;9.240;2023-11-19T00:19:52;4.30;;;3.50;;
6517;SDS011;3292;48.944;9.240;2023-11-19T00:22:19;3.53;;;3.23;;
6517;SDS011;3292;48.944;9.240;2023-11-19T00:24:46;5.90;;;3.57;;
6517;SDS011;3292;48.944;9.240;2023-11-19T00:27:15;3.40;;;3.10;;
6517;SDS011;3292;48.944;9.240;2023-11-19T00:29:42;3.07;;;2.77;;
6517;SDS011;3292;48.944;9.240;2023-11-19T00:32:10;3.80;;;3.20;;
6517;SDS011;3292;48.944;9.240;2023-11-19T00:34:36;4.13;;;3.73;;
6517;SDS011;3292;48.944;9.240;2023-11-19T00:37:03;5.70;;;4.10;;
6517;SDS011;3292;48.944;9.240;2023-11-19T00:39:31;6.63;;;5.33;;
6517;SDS011;3292;48.944;9.240;2023-11-19T00:41:58;5.60;;;5.10;;
6517;SDS011;3292;48.944;9.240;2023-11-19T00:44:26;6.43;;;5.70;;
6517;SDS011;3292;48.944;9.240;2023-11-19T00:46:53;5.37;;;4.87;;
6517;SDS011;3292;48.944;9.240;2023-11-19T00:49:20;4.70;;;4.30;;
6517;SDS011;3292;48.944;9.240;2023-11-19T00:51:46;4.30;;;3.90;;
6517;SDS011;3292;48.944;9.240;2023-11-19T00:54:14;3.87;;;3.57;;
6517;SDS011;3292;48.944;9.240;2023-11-19T00:56:40;4.77;;;3.83;;
6517;SDS011;3292;48.944;9.240;2023-11-19T00:59:07;3.90;;;3.60;;
6517;SDS011;3292;48.944;9.240;2023-11-19T01:01:35;3.87;;;3.53;;
6517;SDS011;3292;48.944;9.240;2023-11-19T01:04:02;4.17;;;3.77;;
6517;SDS011;3292;48.944;9.240;2023-11-19T01:06:30;3.80;;;3.40;;
6517;SDS011;3292;48.944;9.240;2023-11-19T01:08:57;4.33;;;3.90;;
6517;SDS011;3292;48.944;9.240;2023-11-19T01:11:25;5.60;;;4.10;;
6517;SDS011;3292;48.944;9.240;2023-11-19T01:13:53;5.20;;;4.03;;
6517;SDS011;3292;48.944;9.240;2023-11-19T01:16:20;4.47;;;4.07;;
6517;SDS011;3292;48.944;9.240;2023-11-19T01:18:48;6.30;;;4.10;;
6517;SDS011;3292;48.944;9.240;2023-11-19T01:21:18;4.50;;;4.10;;
6517;SDS011;3292;48.944;9.240;2023-11-19T01:23:47;4.70;;;4.20;;
6517;SDS011;3292;48.944;9.240;2023-11-19T01:26:13;4.33;;;3.93;;
6517;SDS011;3292;48.944;9.240;2023-11-19T01:28:40;5.90;;;4.20;;
6517;SDS011;3292;48.944;9.240;2023-11-19T01:31:10;4.40;;;3.97;;
6517;SDS011;3292;48.944;9.240;2023-11-19T01:33:37;4.10;;;3.70;;
6517;SDS011;3292;48.944;9.240;2023-11-19T01:36:06;4.20;;;3.90;;
6517;SDS011;3292;48.944;9.240;2023-11-19T01:38:34;4.60;;;4.20;;
6517;SDS011;3292;48.944;9.240;2023-11-19T01:41:02;4.30;;;3.87;;
6517;SDS011;3292;48.944;9.240;2023-11-19T01:43:35;4.30;;;3.90;;
6517;SDS011;3292;48.944;9.240;2023-11-19T01:46:04;4.43;;;4.03;;
6517;SDS011;3292;48.944;9.240;2023-11-19T01:48:32;4.60;;;4.20;;
6517;SDS011;3292;48.944;9.240;2023-11-19T01:51:01;5.07;;;4.30;;
6517;SDS011;3292;48.944;9.240;2023-11-19T01:53:30;4.30;;;3.90;;
6517;SDS011;3292;48.944;9.240;2023-11-19T01:55:58;5.47;;;4.33;;
6517;SDS011;3292;48.944;9.240;2023-11-19T01:58:25;6.27;;;3.87;;
6517;SDS011;3292;48.944;9.240;2023-11-19T02:00:52;5.40;;;4.13;;
6517;SDS011;3292;48.944;9.240;2023-11-19T02:03:19;6.30;;;4.60;;
6517;SDS011;3292;48.944;9.240;2023-11-19T02:05:47;4.30;;;3.90;;
6517;SDS011;3292;48.944;9.240;2023-11-19T02:08:16;5.00;;;4.50;;
6517;SDS011;3292;48.944;9.240;2023-11-19T02:10:44;4.87;;;4.00;;
6517;SDS011;3292;48.944;9.240;2023-11-19T02:13:11;6.50;;;4.07;;
6517;SDS011;3292;48.944;9.240;2023-11-19T02:15:38;4.30;;;3.90;;
6517;SDS011;3292;48.944;9.240;2023-11-19T02:18:19;5.20;;;4.70;;
6517;SDS011;3292;48.944;9.240;2023-11-19T02:20:47;5.63;;;4.20;;
6517;SDS011;3292;48.944;9.240;2023-11-19T02:23:14;5.93;;;4.30;;
6517;SDS011;3292;48.944;9.240;2023-11-19T02:25:43;5.37;;;4.10;;
6517;SDS011;3292;48.944;9.240;2023-11-19T02:28:19;4.70;;;4.30;;
6517;SDS011;3292;48.944;9.240;2023-11-19T02:30:46;4.33;;;3.93;;
6517;SDS011;3292;48.944;9.240;2023-11-19T02:33:12;3.93;;;3.57;;
6517;SDS011;3292;48.944;9.240;2023-11-19T02:35:40;4.13;;;3.83;;
6517;SDS011;3292;48.944;9.240;2023-11-19T02:38:07;4.57;;;4.20;;
6517;SDS011;3292;48.944;9.240;2023-11-19T02:40:34;4.37;;;3.97;;
6517;SDS011;3292;48.944;9.240;2023-11-19T02:43:01;5.37;;;4.07;;
6517;SDS011;3292;48.944;9.240;2023-11-19T02:45:30;4.07;;;3.67;;
6517;SDS011;3292;48.944;9.240;2023-11-19T02:47:57;5.57;;;4.07;;
6517;SDS011;3292;48.944;9.240;2023-11-19T02:50:26;4.10;;;3.67;;
6517;SDS011;3292;48.944;9.240;2023-11-19T02:52:53;4.67;;;4.20;;
6517;SDS011;3292;48.944;9.240;2023-11-19T02:55:21;4.27;;;3.83;;
6517;SDS011;3292;48.944;9.240;2023-11-19T02:57:49;4.00;;;3.50;;
6517;SDS011;3292;48.944;9.240;2023-11-19T03:00:18;4.63;;;4.23;;
6517;SDS011;3292;48.944;9.240;2023-11-19T03:02:50;3.67;;;3.37;;
6517;SDS011;3292;48.944;9.240;2023-11-19T03:05:24;3.93;;;3.63;;
6517;SDS011;3292;48.944;9.240;2023-11-19T03:07:55;5.30;;;4.03;;
6517;SDS011;3292;48.944;9.240;2023-11-19T03:10:21;4.20;;;3.63;;
6517;SDS011;3292;48.944;9.240;2023-11-19T03:12:49;4.07;;;3.77;;
6517;SDS011;3292;48.944;9.240;2023-11-19T03:15:16;4.77;;;4.37;;
6517;SDS011;3292;48.944;9.240;2023-11-19T03:17:42;5.70;;;4.70;;
6517;SDS011;3292;48.944;9.240;2023-11-19T03:20:11;5.53;;;5.03;;
6517;SDS011;3292;48.944;9.240;2023-11-19T03:22:42;5.60;;;5.20;;
6517;SDS011;3292;48.944;9.240;2023-11-19T03:25:09;5.80;;;5.30;;
6517;SDS011;3292;48.944;9.240;2023-11-19T03:27:36;6.30;;;5.70;;
6517;SDS011;3292;48.944;9.240;2023-11-19T03:30:04;5.43;;;5.03;;
6517;SDS011;3292;48.944;9.240;2023-11-19T03:32:31;4.80;;;4.40;;
6517;SDS011;3292;48.944;9.240;2023-11-19T03:34:59;4.30;;;3.90;;
6517;SDS011;3292;48.944;9.240;2023-11-19T03:37:28;4.03;;;3.73;;
6517;SDS011;3292;48.944;9.240;2023-11-19T03:39:55;4.13;;;3.30;;
6517;SDS011;3292;48.944;9.240;2023-11-19T03:42:24;4.83;;;3.80;;
6517;SDS011;3292;48.944;9.240;2023-11-19T03:44:51;5.10;;;4.10;;
6517;SDS011;3292;48.944;9.240;2023-11-19T03:47:18;4.83;;;3.73;;
6517;SDS011;3292;48.944;9.240;2023-11-19T03:49:46;4.23;;;3.83;;
6517;SDS011;3292;48.944;9.240;2023-11-19T03:52:14;5.13;;;3.50;;
6517;SDS011;3292;48.944;9.240;2023-11-19T03:54:42;4.07;;;3.63;;
6517;SDS011;3292;48.944;9.240;2023-11-19T03:57:09;4.10;;;3.70;;
6517;SDS011;3292;48.944;9.240;2023-11-19T03:59:37;4.63;;;4.00;;
6517;SDS011;3292;48.944;9.240;2023-11-19T04:02:04;4.40;;;4.00;;
6517;SDS011;3292;48.944;9.240;2023-11-19T04:04:31;4.93;;;4.23;;
6517;SDS011;3292;48.944;9.240;2023-11-19T04:06:58;4.33;;;3.93;;
6517;SDS011;3292;48.944;9.240;2023-11-19T04:09:27;4.40;;;4.00;;
6517;SDS011;3292;48.944;9.240;2023-11-19T04:11:56;4.23;;;3.83;;
6517;SDS011;3292;48.944;9.240;2023-11-19T04:14:22;5.43;;;4.93;;
6517;SDS011;3292;48.944;9.240;2023-11-19T04:16:51;4.80;;;4.40;;
6517;SDS011;3292;48.944;9.240;2023-11-19T04:19:18;5.70;;;5.20;;
6517;SDS011;3292;48.944;9.240;2023-11-19T04:21:45;5.13;;;4.63;;
6517;SDS011;3292;48.944;9.240;2023-11-19T04:24:12;5.30;;;4.80;;
6517;SDS011;3292;48.944;9.240;2023-11-19T04:26:40;5.13;;;4.73;;
6517;SDS011;3292;48.944;9.240;2023-11-19T04:29:09;4.50;;;4.10;;
6517;SDS011;3292;48.944;9.240;2023-11-19T04:31:37;4.33;;;3.97;;
6517;SDS011;3292;48.944;9.240;2023-11-19T04:34:04;3.90;;;3.60;;
6517;SDS011;3292;48.944;9.240;2023-11-19T04:36:31;4.20;;;3.90;;
6517;SDS011;3292;48.944;9.240;2023-11-19T04:38:58;4.20;;;3.80;;
6517;SDS011;3292;48.944;9.240;2023-11-19T04:41:25;4.57;;;3.50;;
6517;SDS011;3292;48.944;9.240;2023-11-19T04:43:52;3.73;;;3.43;;
6517;SDS011;3292;48.944;9.240;2023-11-19T04:46:21;3.67;;;3.37;;
6517;SDS011;3292;48.944;9.240;2023-11-19T04:48:48;3.47;;;3.17;;
6517;SDS011;3292;48.944;9.240;2023-11-19T04:51:15;3.57;;;3.20;;
6517;SDS011;3292;48.944;9.240;2023-11-19T04:53:42;3.40;;;3.20;;
6517;SDS011;3292;48.944;9.240;2023-11-19T04:56:10;3.40;;;2.90;;
6517;SDS011;3292;48.944;9.240;2023-11-19T04:58:38;3.33;;;3.03;;
6517;SDS011;3292;48.944;9.240;2023-11-19T05:01:05;3.20;;;3.00;;
6517;SDS011;3292;48.944;9.240;2023-11-19T05:03:33;3.23;;;2.93;;
6517;SDS011;3292;48.944;9.240;2023-11-19T05:06:01;3.03;;;2.83;;
6517;SDS011;3292;48.944;9.240;2023-11-19T05:08:28;3.17;;;2.97;;
6517;SDS011;3292;48.944;9.240;2023-11-19T05:10:55;3.77;;;3.47;;
6517;SDS011;3292;48.944;9.240;2023-11-19T05:13:22;3.63;;;3.37;;
6517;SDS011;3292;48.944;9.240;2023-11-19T05:15:49;4.20;;;3.90;;
6517;SDS011;3292;48.944;9.240;2023-11-19T05:18:16;3.80;;;3.50;;
6517;SDS011;3292;48.944;9.240;2023-11-19T05:20:45;3.50;;;3.20;;
6517;SDS011;3292;48.944;9.240;2023-11-19T05:23:12;3.63;;;3.33;;
6517;SDS011;3292;48.944;9.240;2023-11-19T05:25:38;3.50;;;3.20;;
6517;SDS011;3292;48.944;9.240;2023-11-19T05:28:05;3.43;;;3.17;;
6517;SDS011;3292;48.944;9.240;2023-11-19T05:30:33;3.20;;;2.90;;
6517;SDS011;3292;48.944;9.240;2023-11-19T05:33:00;2.90;;;2.70;;
6517;SDS011;3292;48.944;9.240;2023-11-19T05:35:27;3.00;;;2.80;;
6517;SDS011;3292;48.944;9.240;2023-11-19T05:37:55;3.33;;;2.67;;
6517;SDS011;3292;48.944;9.240;2023-11-19T05:40:21;2.90;;;2.70;;
6517;SDS011;3292;48.944;9.240;2023-11-19T05:42:48;3.50;;;3.20;;
6517;SDS011;3292;48.944;9.240;2023-11-19T05:45:15;3.10;;;2.80;;
6517;SDS011;3292;48.944;9.240;2023-11-19T05:47:42;3.23;;;2.97;;
6517;SDS011;3292;48.944;9.240;2023-11-19T05:50:12;2.63;;;2.43;;
6517;SDS011;3292;48.944;9.240;2023-11-19T05:52:39;3.07;;;2.87;;
6517;SDS011;3292;48.944;9.240;2023-11-19T05:55:07;3.07;;;2.73;;
6517;SDS011;3292;48.944;9.240;2023-11-19T05:57:35;2.53;;;2.33;;
6517;SDS011;3292;48.944;9.240;2023-11-19T06:00:03;2.97;;;2.63;;
6517;SDS011;3292;48.944;9.240;2023-11-19T06:02:33;2.67;;;2.13;;
6517;SDS011;3292;48.944;9.240;2023-11-19T06:05:02;2.80;;;2.20;;
6517;SDS011;3292;48.944;9.240;2023-11-19T06:07:30;2.00;;;1.90;;
6517;SDS011;3292;48.944;9.240;2023-11-19T06:09:57;1.80;;;1.70;;
6517;SDS011;3292;48.944;9.240;2023-11-19T06:12:26;2.03;;;1.63;;
6517;SDS011;3292;48.944;9.240;2023-11-19T06:14:53;1.83;;;1.67;;
6517;SDS011;3292;48.944;9.240;2023-11-19T06:17:20;1.83;;;1.73;;
6517;SDS011;3292;48.944;9.240;2023-11-19T06:19:47;2.23;;;1.50;;
6517;SDS011;3292;48.944;9.240;2023-11-19T06:22:14;1.40;;;1.30;;
6517;SDS011;3292;48.944;9.240;2023-11-19T06:24:41;1.40;;;1.30;;
6517;SDS011;3292;48.944;9.240;2023-11-19T06:27:08;1.40;;;1.30;;
6517;SDS011;3292;48.944;9.240;2023-11-19T06:29:36;1.50;;;1.40;;
6517;SDS011;3292;48.944;9.240;2023-11-19T06:32:03;1.50;;;1.40;;
6517;SDS011;3292;48.944;9.240;2023-11-19T06:34:31;1.70;;;1.30;;
6517;SDS011;3292;48.944;9.240;2023-11-19T06:36:58;2.20;;;1.60;;
6517;SDS011;3292;48.944;9.240;2023-11-19T06:39:25;2.40;;;1.93;;
6517;SDS011;3292;48.944;9.240;2023-11-19T06:41:51;1.40;;;1.30;;
6517;SDS011;3292;48.944;9.240;2023-11-19T06:44:18;2.10;;;1.40;;
6517;SDS011;3292;48.944;9.240;2023-11-19T06:46:46;1.20;;;1.20;;
6517;SDS011;3292;48.944;9.240;2023-11-19T06:49:14;1.33;;;1.23;;
6517;SDS011;3292;48.944;9.240;2023-11-19T06:51:42;1.50;;;1.40;;
6517;SDS011;3292;48.944;9.240;2023-11-19T06:54:09;1.30;;;1.20;;
6517;SDS011;3292;48.944;9.240;2023-11-19T06:56:36;1.40;;;1.30;;
6517;SDS011;3292;48.944;9.240;2023-11-19T06:59:03;1.30;;;1.20;;
6517;SDS011;3292;48.944;9.240;2023-11-19T07:01:33;1.40;;;1.30;;
6517;SDS011;3292;48.944;9.240;2023-11-19T07:04:02;2.07;;;1.20;;
6517;SDS011;3292;48.944;9.240;2023-11-19T07:06:34;1.10;;;1.10;;
6517;SDS011;3292;48.944;9.240;2023-11-19T07:09:01;2.03;;;1.40;;
6517;SDS011;3292;48.944;9.240;2023-11-19T07:11:34;1.40;;;1.30;;
6517;SDS011;3292;48.944;9.240;2023-11-19T07:14:01;1.60;;;1.40;;
6517;SDS011;3292;48.944;9.240;2023-11-19T07:16:29;1.40;;;1.30;;
6517;SDS011;3292;48.944;9.240;2023-11-19T07:18:55;1.40;;;1.30;;
6517;SDS011;3292;48.944;9.240;2023-11-19T07:21:25;1.50;;;1.40;;
6517;SDS011;3292;48.944;9.240;2023-11-19T07:23:53;1.60;;;1.50;;
6517;SDS011;3292;48.944;9.240;2023-11-19T07:26:20;1.60;;;1.50;;
6517;SDS011;3292;48.944;9.240;2023-11-19T07:28:46;2.30;;;2.10;;
6517;SDS011;3292;48.944;9.240;2023-11-19T07:31:13;2.00;;;1.90;;
6517;SDS011;3292;48.944;9.240;2023-11-19T07:33:40;1.50;;;1.40;;
6517;SDS011;3292;48.944;9.240;2023-11-19T07:36:08;1.60;;;1.50;;
6517;SDS011;3292;48.944;9.240;2023-11-19T07:38:36;2.60;;;1.40;;
6517;SDS011;3292;48.944;9.240;2023-11-19T07:41:03;2.40;;;1.80;;
6517;SDS011;3292;48.944;9.240;2023-11-19T07:43:30;1.90;;;1.80;;
6517;SDS011;3292;48.944;9.240;2023-11-19T07:45:57;2.00;;;1.90;;
6517;SDS011;3292;48.944;9.240;2023-11-19T07:48:24;2.80;;;2.60;;
6517;SDS011;3292;48.944;9.240;2023-11-19T07:50:51;2.50;;;2.27;;
6517;SDS011;3292;48.944;9.240;2023-11-19T07:53:18;2.00;;;1.90;;
6517;SDS011;3292;48.944;9.240;2023-11-19T07:55:47;3.10;;;2.10;;
6517;SDS011;3292;48.944;9.240;2023-11-19T07:58:14;2.10;;;2.00;;
6517;SDS011;3292;48.944;9.240;2023-11-19T08:00:41;2.00;;;1.90;;
6517;SDS011;3292;48.944;9.240;2023-11-19T08:03:07;2.50;;;2.30;;
6517;SDS011;3292;48.944;9.240;2023-11-19T08:05:34;2.43;;;1.90;;
6517;SDS011;3292;48.944;9.240;2023-11-19T08:08:02;2.07;;;1.97;;
6517;SDS011;3292;48.944;9.240;2023-11-19T08:10:28;3.90;;;1.60;;
6517;SDS011;3292;48.944;9.240;2023-11-19T08:12:57;2.93;;;1.57;;
6517;SDS011;3292;48.944;9.240;2023-11-19T08:15:23;1.67;;;1.50;;
6517;SDS011;3292;48.944;9.240;2023-11-19T08:17:50;1.83;;;1.60;;
6517;SDS011;3292;48.944;9.240;2023-11-19T08:20:18;2.77;;;1.80;;
6517;SDS011;3292;48.944;9.240;2023-11-19T08:22:46;1.60;;;1.50;;
6517;SDS011;3292;48.944;9.240;2023-11-19T08:25:13;2.10;;;2.00;;
6517;SDS011;3292;48.944;9.240;2023-11-19T08:27:40;2.17;;;1.97;;
6517;SDS011;3292;48.944;9.240;2023-11-19T08:30:10;1.70;;;1.60;;
6517;SDS011;3292;48.944;9.240;2023-11-19T08:32:37;1.53;;;1.40;;
6517;SDS011;3292;48.944;9.240;2023-11-19T08:35:04;1.60;;;1.50;;
6517;SDS011;3292;48.944;9.240;2023-11-19T08:37:31;2.07;;;1.50;;
6517;SDS011;3292;48.944;9.240;2023-11-19T08:39:58;2.00;;;1.40;;
6517;SDS011;3292;48.944;9.240;2023-11-19T08:42:26;1.70;;;1.60;;
6517;SDS011;3292;48.944;9.240;2023-11-19T08:44:53;2.43;;;2.23;;
6517;SDS011;3292;48.944;9.240;2023-11-19T08:47:21;2.13;;;1.97;;
6517;SDS011;3292;48.944;9.240;2023-11-19T08:49:50;1.90;;;1.80;;
6517;SDS011;3292;48.944;9.240;2023-11-19T08:52:17;1.77;;;1.67;;
6517;SDS011;3292;48.944;9.240;2023-11-19T08:54:44;1.53;;;1.43;;
6517;SDS011;3292;48.944;9.240;2023-11-19T08:57:11;4.20;;;1.50;;
6517;SDS011;3292;48.944;9.240;2023-11-19T08:59:38;1.57;;;1.47;;
6517;SDS011;3292;48.944;9.240;2023-11-19T09:02:05;2.40;;;1.47;;
6517;SDS011;3292;48.944;9.240;2023-11-19T09:04:33;1.70;;;1.60;;
6517;SDS011;3292;48.944;9.240;2023-11-19T09:07:01;3.20;;;2.97;;
6517;SDS011;3292;48.944;9.240;2023-11-19T09:09:28;4.80;;;4.40;;
6517;SDS011;3292;48.944;9.240;2023-11-19T09:11:55;6.13;;;5.53;;
6517;SDS011;3292;48.944;9.240;2023-11-19T09:14:22;8.77;;;6.70;;
6517;SDS011;3292;48.944;9.240;2023-11-19T09:16:50;7.03;;;6.20;;
6517;SDS011;3292;48.944;9.240;2023-11-19T09:19:17;7.30;;;5.63;;
6517;SDS011;3292;48.944;9.240;2023-11-19T09:21:45;5.33;;;4.93;;
6517;SDS011;3292;48.944;9.240;2023-11-19T09:24:15;4.93;;;4.37;;
6517;SDS011;3292;48.944;9.240;2023-11-19T09:26:42;6.27;;;5.67;;
6517;SDS011;3292;48.944;9.240;2023-11-19T09:29:09;5.83;;;5.07;;
6517;SDS011;3292;48.944;9.240;2023-11-19T09:31:37;4.83;;;4.13;;
6517;SDS011;3292;48.944;9.240;2023-11-19T09:34:04;4.97;;;3.73;;
6517;SDS011;3292;48.944;9.240;2023-11-19T09:36:31;5.50;;;4.07;;
6517;SDS011;3292;48.944;9.240;2023-11-19T09:38:59;4.20;;;3.83;;
6517;SDS011;3292;48.944;9.240;2023-11-19T09:41:27;3.90;;;3.60;;
6517;SDS011;3292;48.944;9.240;2023-11-19T09:43:55;3.77;;;3.47;;
6517;SDS011;3292;48.944;9.240;2023-11-19T09:46:22;4.37;;;3.97;;
6517;SDS011;3292;48.944;9.240;2023-11-19T09:48:50;2.10;;;2.00;;
6517;SDS011;3292;48.944;9.240;2023-11-19T09:51:20;3.87;;;2.10;;
6517;SDS011;3292;48.944;9.240;2023-11-19T09:53:47;3.90;;;2.10;;
6517;SDS011;3292;48.944;9.240;2023-11-19T09:56:16;3.10;;;2.00;;
6517;SDS011;3292;48.944;9.240;2023-11-19T09:58:43;1.70;;;1.60;;
6517;SDS011;3292;48.944;9.240;2023-11-19T10:01:09;2.23;;;1.60;;
6517;SDS011;3292;48.944;9.240;2023-11-19T10:03:37;2.20;;;1.40;;
6517;SDS011;3292;48.944;9.240;2023-11-19T10:06:09;2.00;;;1.40;;
6517;SDS011;3292;48.944;9.240;2023-11-19T10:08:37;1.83;;;1.40;;
6517;SDS011;3292;48.944;9.240;2023-11-19T10:11:05;1.60;;;1.37;;
6517;SDS011;3292;48.944;9.240;2023-11-19T10:13:34;2.53;;;1.70;;
6517;SDS011;3292;48.944;9.240;2023-11-19T10:16:03;2.70;;;2.00;;
6517;SDS011;3292;48.944;9.240;2023-11-19T10:18:33;1.90;;;1.80;;
6517;SDS011;3292;48.944;9.240;2023-11-19T10:21:03;3.43;;;2.00;;
6517;SDS011;3292;48.944;9.240;2023-11-19T10:23:30;3.07;;;1.33;;
6517;SDS011;3292;48.944;9.240;2023-11-19T10:26:01;2.23;;;1.50;;
6517;SDS011;3292;48.944;9.240;2023-11-19T10:28:36;2.33;;;1.60;;
6517;SDS011;3292;48.944;9.240;2023-11-19T10:31:05;2.60;;;1.60;;
6517;SDS011;3292;48.944;9.240;2023-11-19T10:33:32;2.07;;;1.60;;
6517;SDS011;3292;48.944;9.240;2023-11-19T10:35:59;2.83;;;1.90;;
6517;SDS011;3292;48.944;9.240;2023-11-19T10:38:26;1.50;;;1.40;;
6517;SDS011;3292;48.944;9.240;2023-11-19T10:40:53;1.67;;;1.43;;
6517;SDS011;3292;48.944;9.240;2023-11-19T10:43:20;3.17;;;1.70;;
6517;SDS011;3292;48.944;9.240;2023-11-19T10:45:49;3.43;;;1.60;;
6517;SDS011;3292;48.944;9.240;2023-11-19T10:48:17;2.60;;;1.60;;
6517;SDS011;3292;48.944;9.240;2023-11-19T10:50:45;3.87;;;1.80;;
6517;SDS011;3292;48.944;9.240;2023-11-19T10:53:15;2.00;;;1.63;;
6517;SDS011;3292;48.944;9.240;2023-11-19T10:55:45;1.70;;;1.40;;
6517;SDS011;3292;48.944;9.240;2023-11-19T10:58:15;3.77;;;1.80;;
6517;SDS011;3292;48.944;9.240;2023-11-19T11:00:43;2.00;;;1.30;;
6517;SDS011;3292;48.944;9.240;2023-11-19T11:03:16;1.40;;;1.30;;
6517;SDS011;3292;48.944;9.240;2023-11-19T11:05:44;1.47;;;1.37;;
6517;SDS011;3292;48.944;9.240;2023-11-19T11:08:13;2.53;;;1.50;;
6517;SDS011;3292;48.944;9.240;2023-11-19T11:10:42;2.93;;;1.67;;
6517;SDS011;3292;48.944;9.240;2023-11-19T11:13:11;3.03;;;1.50;;
6517;SDS011;3292;48.944;9.240;2023-11-19T11:15:40;4.60;;;1.60;;
6517;SDS011;3292;48.944;9.240;2023-11-19T11:18:08;2.23;;;1.60;;
6517;SDS011;3292;48.944;9.240;2023-11-19T11:20:36;4.60;;;1.40;;
6517;SDS011;3292;48.944;9.240;2023-11-19T11:26:13;2.20;;;1.50;;
6517;SDS011;3292;48.944;9.240;2023-11-19T11:28:55;1.93;;;1.50;;
6517;SDS011;3292;48.944;9.240;2023-11-19T11:31:31;1.60;;;1.37;;
6517;SDS011;3292;48.944;9.240;2023-11-19T11:34:09;1.60;;;1.50;;
6517;SDS011;3292;48.944;9.240;2023-11-19T11:37:01;2.70;;;1.93;;
6517;SDS011;3292;48.944;9.240;2023-11-19T11:39:39;2.40;;;1.50;;
6517;SDS011;3292;48.944;9.240;2023-11-19T11:44:59;3.00;;;1.53;;
6517;SDS011;3292;48.944;9.240;2023-11-19T11:47:28;2.70;;;1.70;;
6517;SDS011;3292;48.944;9.240;2023-11-19T11:50:33;1.97;;;1.50;;
6517;SDS011;3292;48.944;9.240;2023-11-19T11:53:15;1.43;;;1.23;;
6517;SDS011;3292;48.944;9.240;2023-11-19T11:55:56;5.23;;;1.60;;
6517;SDS011;3292;48.944;9.240;2023-11-19T11:58:31;2.13;;;1.57;;
6517;SDS011;3292;48.944;9.240;2023-11-19T12:01:01;2.83;;;1.50;;
6517;SDS011;3292;48.944;9.240;2023-11-19T12:03:32;2.77;;;1.60;;
6517;SDS011;3292;48.944;9.240;2023-11-19T12:06:00;2.63;;;1.70;;
6517;SDS011;3292;48.944;9.240;2023-11-19T12:08:29;2.70;;;1.53;;
6517;SDS011;3292;48.944;9.240;2023-11-19T12:10:57;2.47;;;1.60;;
6517;SDS011;3292;48.944;9.240;2023-11-19T12:13:24;1.77;;;1.50;;
6517;SDS011;3292;48.944;9.240;2023-11-19T12:16:08;3.70;;;1.50;;
6517;SDS011;3292;48.944;9.240;2023-11-19T12:18:36;1.43;;;1.33;;
6517;SDS011;3292;48.944;9.240;2023-11-19T12:21:06;4.20;;;1.40;;
6517;SDS011;3292;48.944;9.240;2023-11-19T12:23:36;1.63;;;1.50;;
6517;SDS011;3292;48.944;9.240;2023-11-19T12:26:31;3.77;;;1.50;;
6517;SDS011;3292;48.944;9.240;2023-11-19T12:29:02;2.87;;;1.50;;
6517;SDS011;3292;48.944;9.240;2023-11-19T12:31:33;3.07;;;1.60;;
6517;SDS011;3292;48.944;9.240;2023-11-19T12:34:08;3.23;;;1.67;;
6517;SDS011;3292;48.944;9.240;2023-11-19T12:36:36;2.13;;;1.53;;
6517;SDS011;3292;48.944;9.240;2023-11-19T12:39:06;2.43;;;1.40;;
6517;SDS011;3292;48.944;9.240;2023-11-19T12:41:48;1.60;;;1.50;;
6517;SDS011;3292;48.944;9.240;2023-11-19T12:44:19;2.53;;;1.80;;
6517;SDS011;3292;48.944;9.240;2023-11-19T12:46:46;3.13;;;1.43;;
6517;SDS011;3292;48.944;9.240;2023-11-19T12:49:12;2.00;;;1.50;;
6517;SDS011;3292;48.944;9.240;2023-11-19T12:51:39;2.73;;;1.40;;
6517;SDS011;3292;48.944;9.240;2023-11-19T12:54:08;3.10;;;1.50;;
6517;SDS011;3292;48.944;9.240;2023-11-19T12:56:35;1.83;;;1.60;;
6517;SDS011;3292;48.944;9.240;2023-11-19T12:59:10;1.20;;;1.20;;
6517;SDS011;3292;48.944;9.240;2023-11-19T13:01:37;1.90;;;1.50;;
6517;SDS011;3292;48.944;9.240;2023-11-19T13:04:15;3.63;;;1.57;;
6517;SDS011;3292;48.944;9.240;2023-11-19T13:06:44;1.57;;;1.47;;
6517;SDS011;3292;48.944;9.240;2023-11-19T13:09:22;2.00;;;1.50;;
6517;SDS011;3292;48.944;9.240;2023-11-19T13:11:50;2.20;;;1.43;;
6517;SDS011;3292;48.944;9.240;2023-11-19T13:14:17;1.87;;;1.60;;
6517;SDS011;3292;48.944;9.240;2023-11-19T13:16:44;2.50;;;2.00;;
6517;SDS011;3292;48.944;9.240;2023-11-19T13:19:11;4.10;;;2.00;;
6517;SDS011;3292;48.944;9.240;2023-11-19T13:21:38;2.40;;;1.50;;
6517;SDS011;3292;48.944;9.240;2023-11-19T13:24:05;2.13;;;1.50;;
6517;SDS011;3292;48.944;9.240;2023-11-19T13:26:34;1.77;;;1.60;;
6517;SDS011;3292;48.944;9.240;2023-11-19T13:29:01;3.63;;;1.70;;
6517;SDS011;3292;48.944;9.240;2023-11-19T13:31:28;2.00;;;1.50;;
6517;SDS011;3292;48.944;9.240;2023-11-19T13:33:54;1.73;;;1.53;;
6517;SDS011;3292;48.944;9.240;2023-11-19T13:36:21;3.17;;;1.50;;
6517;SDS011;3292;48.944;9.240;2023-11-19T13:38:48;1.80;;;1.53;;
6517;SDS011;3292;48.944;9.240;2023-11-19T13:41:15;1.40;;;1.30;;
6517;SDS011;3292;48.944;9.240;2023-11-19T13:43:43;2.83;;;1.70;;
6517;SDS011;3292;48.944;9.240;2023-11-19T13:46:10;2.13;;;1.60;;
6517;SDS011;3292;48.944;9.240;2023-11-19T13:48:37;3.08;;;1.55;;
6517;SDS011;3292;48.944;9.240;2023-11-19T13:51:04;1.90;;;1.37;;
6517;SDS011;3292;48.944;9.240;2023-11-19T13:53:32;2.70;;;1.40;;
6517;SDS011;3292;48.944;9.240;2023-11-19T13:55:59;3.50;;;1.60;;
6517;SDS011;3292;48.944;9.240;2023-11-19T13:58:25;1.93;;;1.77;;
6517;SDS011;3292;48.944;9.240;2023-11-19T14:00:54;1.97;;;1.70;;
6517;SDS011;3292;48.944;9.240;2023-11-19T14:03:20;1.43;;;1.30;;
6517;SDS011;3292;48.944;9.240;2023-11-19T14:05:47;2.03;;;1.30;;
6517;SDS011;3292;48.944;9.240;2023-11-19T14:08:17;2.20;;;1.50;;
6517;SDS011;3292;48.944;9.240;2023-11-19T14:10:44;3.50;;;1.50;;
6517;SDS011;3292;48.944;9.240;2023-11-19T14:13:11;2.07;;;1.60;;
6517;SDS011;3292;48.944;9.240;2023-11-19T14:15:40;3.30;;;1.60;;
6517;SDS011;3292;48.944;9.240;2023-11-19T14:18:08;1.97;;;1.53;;
6517;SDS011;3292;48.944;9.240;2023-11-19T14:20:35;1.83;;;1.50;;
6517;SDS011;3292;48.944;9.240;2023-11-19T14:23:03;2.13;;;1.50;;
6517;SDS011;3292;48.944;9.240;2023-11-19T14:25:30;2.87;;;1.60;;
6517;SDS011;3292;48.944;9.240;2023-11-19T14:27:57;4.20;;;1.53;;
6517;SDS011;3292;48.944;9.240;2023-11-19T14:30:24;1.50;;;1.40;;
6517;SDS011;3292;48.944;9.240;2023-11-19T14:32:51;2.17;;;1.40;;
6517;SDS011;3292;48.944;9.240;2023-11-19T14:35:20;1.93;;;1.60;;
6517;SDS011;3292;48.944;9.240;2023-11-19T14:37:47;2.07;;;1.30;;
6517;SDS011;3292;48.944;9.240;2023-11-19T14:40:14;2.17;;;1.40;;
6517;SDS011;3292;48.944;9.240;2023-11-19T14:42:40;2.47;;;1.50;;
6517;SDS011;3292;48.944;9.240;2023-11-19T14:45:08;2.70;;;1.60;;
6517;SDS011;3292;48.944;9.240;2023-11-19T14:47:37;1.97;;;1.57;;
6517;SDS011;3292;48.944;9.240;2023-11-19T14:50:04;2.50;;;1.50;;
6517;SDS011;3292;48.944;9.240;2023-11-19T14:52:33;3.50;;;1.50;;
6517;SDS011;3292;48.944;9.240;2023-11-19T14:55:01;3.20;;;1.57;;
6517;SDS011;3292;48.944;9.240;2023-11-19T14:57:27;3.67;;;1.80;;
6517;SDS011;3292;48.944;9.240;2023-11-19T14:59:54;1.93;;;1.43;;
6517;SDS011;3292;48.944;9.240;2023-11-19T15:02:21;1.53;;;1.43;;
6517;SDS011;3292;48.944;9.240;2023-11-19T15:04:48;3.73;;;1.50;;
6517;SDS011;3292;48.944;9.240;2023-11-19T15:07:15;1.93;;;1.63;;
6517;SDS011;3292;48.944;9.240;2023-11-19T15:09:43;2.03;;;1.40;;
6517;SDS011;3292;48.944;9.240;2023-11-19T15:12:10;1.93;;;1.60;;
6517;SDS011;3292;48.944;9.240;2023-11-19T15:14:37;3.33;;;1.90;;
6517;SDS011;3292;48.944;9.240;2023-11-19T15:17:04;2.70;;;1.60;;
6517;SDS011;3292;48.944;9.240;2023-11-19T15:19:32;3.10;;;1.83;;
6517;SDS011;3292;48.944;9.240;2023-11-19T15:21:59;1.60;;;1.50;;
6517;SDS011;3292;48.944;9.240;2023-11-19T15:24:29;1.77;;;1.60;;
6517;SDS011;3292;48.944;9.240;2023-11-19T15:26:57;5.83;;;1.57;;